Time;durP1;ratioP1;P1;durP2;ratioP2;P2;SDS_P1;SDS_P2;PMS_P1;PMS_P2;Temp;Humidity;BMP_temperature;BMP_pressure;BME280_temperature;BME280_humidity;BME280_pressure;Samples;Min_cycle;Max_cycle;Signal;HPM_P1;HPM_P2
2021/07/26 00:00:45;;;;;;;25.27;13.70;;;15.60;99.90;;;;;;6135927;23;20081;-89
2021/07/26 00:03:33;;;;;;;14.45;12.43;;;15.60;99.90;;;;;;6164040;23;20017;-88
2021/07/26 00:06:21;;;;;;;17.30;12.05;;;15.60;99.90;;;;;;6162250;23;20025;-88
2021/07/26 00:09:08;;;;;;;18.05;12.93;;;15.70;99.90;;;;;;6155931;23;20306;-87
2021/07/26 00:11:55;;;;;;;17.02;12.23;;;15.70;99.90;;;;;;6153661;23;20033;-87
2021/07/26 00:14:43;;;;;;;15.65;11.93;;;15.70;99.90;;;;;;6153343;23;20029;-86
2021/07/26 00:17:30;;;;;;;14.98;11.52;;;15.80;99.90;;;;;;6154723;23;20524;-87
2021/07/26 00:20:17;;;;;;;16.98;11.98;;;15.80;99.90;;;;;;6134202;23;20327;-86
2021/07/26 00:23:04;;;;;;;18.83;11.45;;;15.80;99.90;;;;;;6155667;23;20359;-87
2021/07/26 00:25:52;;;;;;;22.67;11.45;;;15.80;99.90;;;;;;6132677;23;20057;-86
2021/07/26 00:28:39;;;;;;;11.93;10.02;;;15.80;99.90;;;;;;6135263;23;20056;-87
2021/07/26 00:31:29;;;;;;;15.98;10.73;;;15.80;99.90;;;;;;6153775;23;20168;-88
2021/07/26 00:34:20;;;;;;;12.80;10.73;;;15.90;99.90;;;;;;6154145;23;20104;-88
2021/07/26 00:37:09;;;;;;;15.95;10.20;;;15.90;99.90;;;;;;6155570;23;20104;-88
2021/07/26 00:39:57;;;;;;;22.38;10.77;;;15.90;99.90;;;;;;6152103;23;20021;-89
2021/07/26 00:42:44;;;;;;;17.58;10.68;;;15.90;99.90;;;;;;6159998;23;20092;-88
2021/07/26 00:45:31;;;;;;;15.20;10.05;;;15.80;99.90;;;;;;6133270;23;20057;-88
2021/07/26 00:48:18;;;;;;;19.50;10.30;;;15.70;99.90;;;;;;6130432;23;20027;-88
2021/07/26 00:51:06;;;;;;;16.10;10.52;;;15.70;99.90;;;;;;6152799;23;20172;-86
2021/07/26 00:53:54;;;;;;;19.30;11.13;;;15.60;99.90;;;;;;6154283;23;20375;-89
2021/07/26 00:56:42;;;;;;;16.23;10.57;;;15.60;99.90;;;;;;6178729;23;20024;-89
2021/07/26 00:59:30;;;;;;;15.70;10.25;;;15.50;99.90;;;;;;6161810;23;20121;-88
2021/07/26 01:02:20;;;;;;;14.82;10.70;;;15.50;99.90;;;;;;6182738;23;20056;-87
2021/07/26 01:05:12;;;;;;;15.63;12.90;;;15.30;99.90;;;;;;6164156;23;20024;-89
2021/07/26 01:07:59;;;;;;;20.92;14.70;;;15.20;99.90;;;;;;6164591;23;20418;-87
2021/07/26 01:10:46;;;;;;;22.88;16.38;;;15.20;99.90;;;;;;6162419;23;20123;-86
2021/07/26 01:13:36;;;;;;;20.27;14.82;;;15.10;99.90;;;;;;6182203;23;20028;-86
2021/07/26 01:16:23;;;;;;;20.02;14.80;;;15.10;99.90;;;;;;6181662;23;20404;-87
2021/07/26 01:19:11;;;;;;;18.40;14.38;;;15.10;99.90;;;;;;6182985;23;20079;-88
2021/07/26 01:21:58;;;;;;;22.67;16.17;;;15.10;99.90;;;;;;6184296;23;20406;-86
2021/07/26 01:24:46;;;;;;;20.58;15.70;;;15.10;99.90;;;;;;6163035;23;20036;-87
2021/07/26 01:27:33;;;;;;;25.08;15.07;;;15.10;99.90;;;;;;6164413;23;20340;-89
2021/07/26 01:30:20;;;;;;;19.52;15.23;;;15.10;99.90;;;;;;6164064;23;20427;-87
2021/07/26 01:33:09;;;;;;;22.13;15.93;;;15.10;99.90;;;;;;6140735;23;20080;-85
2021/07/26 01:35:56;;;;;;;22.13;15.10;;;15.20;99.90;;;;;;6183216;23;20056;-87
2021/07/26 01:38:45;;;;;;;18.25;14.30;;;15.10;99.90;;;;;;6181618;23;20032;-86
2021/07/26 01:41:36;;;;;;;20.00;14.82;;;15.10;99.90;;;;;;6182841;23;20021;-88
2021/07/26 01:44:24;;;;;;;25.85;15.05;;;15.10;99.90;;;;;;6163388;23;20028;-88
2021/07/26 01:47:14;;;;;;;23.98;16.33;;;15.10;99.90;;;;;;6184844;23;20421;-86
2021/07/26 01:50:08;;;;;;;26.02;16.08;;;15.10;99.90;;;;;;6163316;23;20033;-88
2021/07/26 01:52:58;;;;;;;24.05;16.80;;;15.20;99.90;;;;;;6186111;23;20025;-85
2021/07/26 01:55:45;;;;;;;23.15;16.20;;;15.30;99.90;;;;;;6181769;23;20060;-87
2021/07/26 01:58:35;;;;;;;23.45;16.65;;;15.30;99.90;;;;;;6181467;23;20190;-87
2021/07/26 02:01:24;;;;;;;27.20;16.48;;;15.40;99.90;;;;;;6181329;23;20025;-85
2021/07/26 02:04:14;;;;;;;22.33;15.85;;;15.40;99.90;;;;;;6161210;23;20080;-86
2021/07/26 02:07:06;;;;;;;22.05;15.02;;;15.30;99.90;;;;;;6161075;23;20048;-88
2021/07/26 02:09:53;;;;;;;23.20;15.20;;;15.30;99.90;;;;;;6143281;23;20029;-86
2021/07/26 02:12:41;;;;;;;23.85;15.43;;;15.30;99.90;;;;;;6160787;23;20320;-86
2021/07/26 02:15:28;;;;;;;21.05;14.07;;;15.30;99.90;;;;;;6188669;23;20024;-87
2021/07/26 02:18:16;;;;;;;20.80;14.40;;;15.30;99.90;;;;;;6165394;23;20024;-86
2021/07/26 02:21:03;;;;;;;22.50;14.48;;;15.30;99.90;;;;;;6186365;23;20053;-86
2021/07/26 02:23:50;;;;;;;21.33;14.63;;;15.30;99.90;;;;;;6183609;23;20100;-88
2021/07/26 02:26:37;;;;;;;19.13;13.65;;;15.30;99.90;;;;;;6182100;23;20037;-88
2021/07/26 02:29:24;;;;;;;22.98;14.52;;;15.40;99.90;;;;;;6182172;23;20103;-87
2021/07/26 02:32:11;;;;;;;21.55;14.60;;;15.40;99.90;;;;;;6181563;23;20029;-87
2021/07/26 02:34:59;;;;;;;18.55;13.20;;;15.40;99.90;;;;;;6163052;23;20033;-88
2021/07/26 02:37:46;;;;;;;16.13;12.57;;;15.40;99.90;;;;;;6162292;23;20021;-88
2021/07/26 02:40:35;;;;;;;17.05;12.48;;;15.50;99.90;;;;;;6141467;23;20025;-88
2021/07/26 02:43:23;;;;;;;17.90;11.75;;;15.50;99.90;;;;;;6182127;23;20383;-88
2021/07/26 02:46:10;;;;;;;18.13;10.65;;;15.60;99.90;;;;;;6141782;23;20040;-86
2021/07/26 02:48:58;;;;;;;25.70;10.75;;;15.60;99.90;;;;;;6168067;23;20079;-87
2021/07/26 02:51:45;;;;;;;19.85;10.82;;;15.60;99.90;;;;;;6190530;23;20045;-87
2021/07/26 02:54:33;;;;;;;23.27;11.38;;;15.70;99.90;;;;;;6168300;23;20099;-87
2021/07/26 02:57:21;;;;;;;21.23;11.55;;;15.60;99.90;;;;;;6184130;23;20035;-87
2021/07/26 03:00:08;;;;;;;20.73;10.50;;;15.70;99.90;;;;;;6182528;23;20071;-87
2021/07/26 03:02:58;;;;;;;17.23;10.88;;;15.70;99.90;;;;;;6183634;23;20126;-86
2021/07/26 03:05:45;;;;;;;16.40;10.02;;;15.70;99.90;;;;;;6163118;23;20029;-84
2021/07/26 03:08:35;;;;;;;17.88;10.10;;;15.80;99.90;;;;;;6162211;23;20021;-87
2021/07/26 03:11:25;;;;;;;14.73;9.63;;;15.80;99.90;;;;;;6163056;23;20037;-88
2021/07/26 03:14:12;;;;;;;11.65;8.65;;;15.80;99.90;;;;;;6183523;23;20040;-86
2021/07/26 03:17:05;;;;;;;17.25;9.40;;;15.90;99.90;;;;;;6185021;23;20025;-88
2021/07/26 03:19:55;;;;;;;;;;;15.90;99.90;;;;;;6185710;23;20333;-86
2021/07/26 03:22:52;;;;;;;13.73;8.75;;;15.90;99.90;;;;;;6183593;23;19916;-86
2021/07/26 03:25:44;;;;;;;10.93;9.25;;;15.90;99.90;;;;;;6144251;23;20356;-86
2021/07/26 03:28:31;;;;;;;14.23;8.85;;;15.90;99.90;;;;;;6183676;23;20032;-87
2021/07/26 03:31:19;;;;;;;21.17;10.10;;;15.90;99.90;;;;;;6184737;23;20160;-86
2021/07/26 03:34:06;;;;;;;17.55;9.57;;;15.90;99.90;;;;;;6183875;23;20053;-86
2021/07/26 03:36:53;;;;;;;14.98;8.82;;;15.90;99.90;;;;;;6144020;23;20083;-87
2021/07/26 03:39:40;;;;;;;15.32;8.82;;;15.90;99.90;;;;;;6183217;23;20068;-88
2021/07/26 03:42:27;;;;;;;12.10;9.27;;;15.90;99.90;;;;;;6162415;23;20021;-89
2021/07/26 03:45:17;;;;;;;12.45;8.60;;;15.90;99.90;;;;;;6183977;23;20036;-86
2021/07/26 03:48:07;;;;;;;14.15;7.97;;;15.90;99.90;;;;;;6161836;23;20077;-86
2021/07/26 03:50:54;;;;;;;15.13;8.10;;;16.00;99.90;;;;;;6183969;23;20084;-86
2021/07/26 03:53:41;;;;;;;19.75;8.88;;;15.90;99.90;;;;;;6162432;23;20108;-85
2021/07/26 03:56:29;;;;;;;19.35;8.65;;;15.90;99.90;;;;;;6184340;23;20071;-86
2021/07/26 03:59:16;;;;;;;17.88;9.05;;;15.80;99.90;;;;;;6184530;23;20091;-87
2021/07/26 04:02:05;;;;;;;14.80;8.95;;;15.80;99.90;;;;;;6183076;23;20391;-85
2021/07/26 04:04:53;;;;;;;17.98;9.25;;;15.60;99.90;;;;;;6162061;23;20032;-86
2021/07/26 04:07:41;;;;;;;16.27;9.73;;;15.60;99.90;;;;;;6184188;23;20098;-86
2021/07/26 04:10:28;;;;;;;16.85;9.93;;;15.50;99.90;;;;;;6185378;23;20053;-88
2021/07/26 04:13:16;;;;;;;14.75;9.75;;;15.40;99.90;;;;;;6185747;23;20120;-89
2021/07/26 04:16:03;;;;;;;17.75;9.55;;;15.40;99.90;;;;;;6186792;23;20033;-88
2021/07/26 04:18:51;;;;;;;14.75;9.57;;;15.40;99.90;;;;;;6182955;23;20091;-85
2021/07/26 04:21:38;;;;;;;17.38;8.95;;;15.40;99.90;;;;;;6185720;23;20025;-85
2021/07/26 04:24:26;;;;;;;12.65;8.68;;;15.50;99.90;;;;;;6164249;23;20048;-87
2021/07/26 04:27:14;;;;;;;9.15;7.70;;;15.50;99.90;;;;;;6184199;23;20116;-87
2021/07/26 04:42:10;;;;;;;16.92;8.50;;;15.50;99.90;;;;;;6182854;23;20021;-86
2021/07/26 04:45:00;;;;;;;12.25;8.13;;;15.60;99.90;;;;;;6147784;23;20025;-86
2021/07/26 04:47:47;;;;;;;11.57;7.10;;;15.70;99.90;;;;;;6164764;23;20021;-85
2021/07/26 04:50:34;;;;;;;11.48;8.07;;;15.70;99.90;;;;;;6163545;23;20095;-86
2021/07/26 04:53:24;;;;;;;11.90;7.72;;;15.70;99.90;;;;;;6182621;23;20044;-85
2021/07/26 04:56:11;;;;;;;15.07;8.35;;;15.70;99.90;;;;;;6183959;23;20097;-86
2021/07/26 04:59:03;;;;;;;14.73;8.85;;;15.70;99.90;;;;;;6182645;23;20079;-86
2021/07/26 05:01:50;;;;;;;17.80;9.20;;;15.70;99.90;;;;;;6184062;23;20104;-85
2021/07/26 05:04:41;;;;;;;17.10;10.20;;;15.60;99.90;;;;;;6141820;23;20107;-87
2021/07/26 05:07:28;;;;;;;9.73;8.30;;;15.50;99.90;;;;;;6182433;23;20032;-86
2021/07/26 05:10:16;;;;;;;18.08;9.20;;;15.50;99.90;;;;;;6164595;23;20121;-87
2021/07/26 05:13:03;;;;;;;16.27;9.15;;;15.40;99.90;;;;;;6183189;23;20076;-87
2021/07/26 05:15:51;;;;;;;19.35;9.27;;;15.40;99.90;;;;;;6181896;23;20033;-87
2021/07/26 05:18:39;;;;;;;12.50;8.85;;;15.50;99.90;;;;;;6183689;23;20325;-87
2021/07/26 05:21:29;;;;;;;10.73;9.25;;;15.50;99.90;;;;;;6163337;23;20103;-87
2021/07/26 05:24:17;;;;;;;14.75;8.23;;;15.70;99.90;;;;;;6163171;23;20112;-84
2021/07/26 05:27:07;;;;;;;14.07;8.18;;;15.80;99.90;;;;;;6182071;23;20031;-87
2021/07/26 05:29:54;;;;;;;11.30;7.32;;;16.00;99.90;;;;;;6185023;23;20040;-87
2021/07/26 05:32:42;;;;;;;14.52;7.85;;;16.10;99.90;;;;;;6160678;23;20054;-86
2021/07/26 05:35:30;;;;;;;13.07;7.35;;;16.30;99.90;;;;;;6164525;23;20025;-86
2021/07/26 05:38:18;;;;;;;12.88;7.60;;;16.40;99.90;;;;;;6173148;23;20091;-87
2021/07/26 05:41:07;;;;;;;14.18;7.63;;;16.50;99.90;;;;;;6180858;23;20056;-86
2021/07/26 05:43:55;;;;;;;12.52;7.82;;;16.50;99.90;;;;;;6189626;23;20036;-87
2021/07/26 05:46:47;;;;;;;13.15;6.70;;;16.60;99.90;;;;;;6188772;23;20044;-87
2021/07/26 05:49:35;;;;;;;12.68;6.22;;;16.80;99.90;;;;;;6168543;23;20092;-85
2021/07/26 05:52:22;;;;;;;11.13;6.75;;;17.00;99.90;;;;;;6185817;23;20096;-87
2021/07/26 05:55:11;;;;;;;13.98;6.15;;;17.10;99.90;;;;;;6185402;23;20029;-88
2021/07/26 05:58:00;;;;;;;17.65;6.60;;;17.30;99.90;;;;;;6163876;23;20091;-87
2021/07/26 06:01:08;;;;;;;11.98;5.75;;;17.30;99.90;;;;;;6145466;23;20401;-88
2021/07/26 06:04:00;;;;;;;17.48;6.95;;;17.40;99.90;;;;;;6164534;23;20020;-86
2021/07/26 06:06:52;;;;;;;10.55;5.55;;;17.60;99.90;;;;;;6161101;23;20025;-85
2021/07/26 06:09:39;;;;;;;15.18;6.38;;;17.60;99.90;;;;;;6163575;23;20021;-88
2021/07/26 06:12:29;;;;;;;10.43;5.45;;;17.60;99.90;;;;;;6182578;23;20028;-86
2021/07/26 06:15:16;;;;;;;14.50;5.63;;;17.50;99.90;;;;;;6182254;23;20348;-88
2021/07/26 06:18:03;;;;;;;11.23;5.53;;;17.50;99.90;;;;;;6163117;23;20792;-86
2021/07/26 06:20:51;;;;;;;14.50;5.55;;;17.60;99.90;;;;;;6151284;23;20081;-87
2021/07/26 06:23:38;;;;;;;11.27;5.00;;;17.80;99.90;;;;;;6161236;23;20021;-86
2021/07/26 06:26:26;;;;;;;12.50;5.30;;;18.10;99.90;;;;;;6153590;23;20021;-89
2021/07/26 06:31:49;;;;;;;8.73;5.43;;;18.80;99.90;;;;;;6160288;23;20247;-91
2021/07/26 06:34:41;;;;;;;12.32;4.32;;;18.90;99.90;;;;;;6158591;23;20045;-90
2021/07/26 06:37:29;;;;;;;;;;;19.10;99.90;;;;;;6141232;23;20031;-91
2021/07/26 06:40:24;;;;;;;9.50;4.45;;;19.40;99.90;;;;;;6162559;23;19920;-92
2021/07/26 06:43:11;;;;;;;12.77;4.88;;;19.70;99.90;;;;;;6169116;23;20025;-90
2021/07/26 06:46:05;;;;;;;6.68;3.85;;;20.00;99.90;;;;;;6161145;23;20021;-91
2021/07/26 06:48:58;;;;;;;8.98;4.30;;;20.40;99.90;;;;;;6156918;23;20024;-91
2021/07/26 06:51:46;;;;;;;8.60;3.78;;;20.70;99.90;;;;;;6154343;23;20133;-87
2021/07/26 06:54:33;;;;;;;13.10;4.90;;;20.80;99.90;;;;;;6152770;23;20036;-86
2021/07/26 06:57:22;;;;;;;5.25;3.95;;;20.60;99.90;;;;;;6155989;23;20807;-91
2021/07/26 07:04:06;;;;;;;8.73;3.90;;;20.70;99.90;;;;;;6158317;23;20009;-92
2021/07/26 07:10:46;;;;;;;6.57;3.65;;;21.10;99.90;;;;;;6158711;23;20046;-90
2021/07/26 07:13:59;;;;;;;5.78;3.97;;;21.60;99.90;;;;;;6157124;23;20088;-91
2021/07/26 07:17:09;;;;;;;10.18;4.18;;;21.80;99.90;;;;;;6156247;23;20055;-92
2021/07/26 07:20:22;;;;;;;7.47;3.50;;;22.00;99.90;;;;;;6155208;23;20033;-90
2021/07/26 07:23:21;;;;;;;6.20;3.90;;;22.10;99.90;;;;;;6155693;23;20021;-92
2021/07/26 07:26:17;;;;;;;9.27;3.67;;;22.40;99.90;;;;;;6154612;23;20033;-90
2021/07/26 07:29:17;;;;;;;4.28;3.45;;;22.70;99.90;;;;;;6153306;23;20021;-91
2021/07/26 07:32:12;;;;;;;7.18;4.00;;;22.90;99.90;;;;;;6152195;23;20040;-90
2021/07/26 07:34:59;;;;;;;6.65;3.28;;;22.80;99.90;;;;;;6155057;23;20029;-93
2021/07/26 07:38:00;;;;;;;5.47;3.78;;;23.00;99.90;;;;;;6154461;23;20127;-91
2021/07/26 07:41:16;;;;;;;;;;;;;;;;;;;;;
2021/07/26 07:44:29;;;;;;;5.55;3.13;;;24.10;99.90;;;;;;6160651;23;20026;-93
2021/07/26 07:47:18;;;;;;;4.03;3.55;;;24.10;99.90;;;;;;6159106;23;20038;-91
2021/07/26 07:50:06;;;;;;;4.55;3.25;;;24.00;99.90;;;;;;6159708;23;20026;-92
2021/07/26 07:52:57;;;;;;;3.88;3.08;;;24.00;99.90;;;;;;6158906;23;20026;-91
2021/07/26 07:55:47;;;;;;;5.25;2.88;;;24.00;99.90;;;;;;6156914;23;20092;-89
2021/07/26 07:58:36;;;;;;;6.57;3.78;;;23.90;99.90;;;;;;6157736;23;20088;-92
2021/07/26 08:01:30;;;;;;;4.15;3.50;;;23.80;99.90;;;;;;6156448;23;20330;-92
2021/07/26 08:04:35;;;;;;;7.30;3.50;;;23.40;99.90;;;;;;6096014;23;20086;-91
2021/07/26 08:07:47;;;;;;;4.60;3.13;;;22.80;99.90;;;;;;6093972;23;20053;-89
2021/07/26 08:10:48;;;;;;;5.65;3.88;;;22.20;99.90;;;;;;6078663;23;20078;-90
2021/07/26 08:13:37;;;;;;;6.93;3.70;;;22.20;99.90;;;;;;6095966;23;20110;-88
2021/07/26 08:16:37;;;;;;;;;;;;;;;;;;;;;
2021/07/26 08:19:46;;;;;;;7.55;3.63;;;22.40;99.90;;;;;;6095762;23;20031;-89
2021/07/26 08:22:44;;;;;;;8.82;3.40;;;22.10;99.90;;;;;;6099238;23;20362;-90
2021/07/26 08:25:45;;;;;;;7.40;4.00;;;22.20;99.90;;;;;;6097431;23;20033;-91
2021/07/26 08:29:11;;;;;;;8.60;3.70;;;22.30;99.90;;;;;;6090139;23;20148;-91
2021/07/26 08:31:58;;;;;;;9.48;3.45;;;22.40;99.90;;;;;;6088670;23;20034;-91
2021/07/26 08:38:47;;;;;;;7.85;4.05;;;22.90;99.90;;;;;;6154376;23;20032;-91
2021/07/26 08:41:37;;;;;;;7.47;3.15;;;23.90;99.90;;;;;;6165066;23;20013;-90
2021/07/26 08:44:33;;;;;;;5.10;2.95;;;24.70;99.90;;;;;;6171890;23;20032;-92
2021/07/26 08:47:28;;;;;;;5.63;2.85;;;25.50;98.90;;;;;;6154165;23;20097;-91
2021/07/26 08:50:27;;;;;;;5.10;2.90;;;25.70;96.50;;;;;;6157074;23;20025;-93
2021/07/26 08:53:14;;;;;;;4.70;2.78;;;26.00;92.40;;;;;;6154624;23;20084;-92
2021/07/26 08:56:06;;;;;;;4.80;2.92;;;26.20;92.80;;;;;;6154896;23;20298;-91
2021/07/26 08:59:10;;;;;;;4.07;2.80;;;26.00;88.70;;;;;;6156757;23;20025;-92
2021/07/26 09:02:24;;;;;;;;;;;;;;;;;;;;;
2021/07/26 09:05:33;;;;;;;4.68;2.55;;;27.10;84.30;;;;;;6162533;23;20036;-90
2021/07/26 09:08:38;;;;;;;4.57;2.70;;;27.00;83.80;;;;;;6157729;23;20044;-90
2021/07/26 09:11:25;;;;;;;3.28;2.38;;;27.10;89.80;;;;;;6162741;23;20040;-86
2021/07/26 09:14:38;;;;;;;6.43;2.45;;;27.40;80.60;;;;;;6155443;23;20025;-87
2021/07/26 09:17:38;;;;;;;5.00;2.67;;;27.70;77.20;;;;;;6155005;23;20026;-90
2021/07/26 09:20:30;;;;;;;3.67;2.25;;;28.20;73.60;;;;;;6152155;23;20488;-89
2021/07/26 09:23:18;;;;;;;6.75;2.55;;;28.90;68.50;;;;;;6154573;23;20080;-88
2021/07/26 09:26:25;;;;;;;4.75;2.30;;;28.30;69.50;;;;;;6152428;23;20040;-88
2021/07/26 09:29:29;;;;;;;5.35;2.38;;;28.80;68.80;;;;;;6154308;23;20097;-87
2021/07/26 09:32:16;;;;;;;2.17;1.92;;;29.50;66.40;;;;;;6155245;23;20108;-87
2021/07/26 09:35:09;;;;;;;4.30;2.17;;;29.80;68.90;;;;;;6152841;23;20036;-89
2021/07/26 09:37:58;;;;;;;4.10;2.28;;;30.60;61.80;;;;;;6153516;23;20029;-90
2021/07/26 09:40:52;;;;;;;4.18;2.08;;;30.10;57.90;;;;;;6154325;23;20026;-89
2021/07/26 09:43:39;;;;;;;3.30;2.30;;;30.50;57.10;;;;;;6155763;23;20033;-89
2021/07/26 09:46:30;;;;;;;2.95;2.10;;;29.80;58.90;;;;;;6154282;23;20096;-88
2021/07/26 09:49:19;;;;;;;6.03;2.40;;;29.80;59.20;;;;;;6155714;23;20333;-89
2021/07/26 09:52:10;;;;;;;4.95;2.40;;;30.00;59.50;;;;;;6155697;23;20280;-89
2021/07/26 09:55:00;;;;;;;3.85;2.30;;;30.10;58.60;;;;;;6157604;23;20041;-89
2021/07/26 09:57:49;;;;;;;4.65;2.53;;;30.70;62.50;;;;;;6156512;23;20124;-90
2021/07/26 10:00:37;;;;;;;3.22;2.00;;;31.50;58.90;;;;;;6154902;23;20041;-91
2021/07/26 10:03:26;;;;;;;2.40;1.80;;;32.20;55.20;;;;;;6155118;23;20101;-89
2021/07/26 10:06:14;;;;;;;4.85;1.70;;;32.50;52.80;;;;;;6155872;23;20093;-91
2021/07/26 10:09:26;;;;;;;3.55;2.25;;;32.30;54.70;;;;;;6155205;23;20088;-91
2021/07/26 10:12:23;;;;;;;3.13;2.20;;;31.30;53.10;;;;;;6138156;23;20209;-90
2021/07/26 10:15:11;;;;;;;4.28;1.95;;;30.60;54.90;;;;;;6156202;23;20026;-92
2021/07/26 10:18:01;;;;;;;3.78;2.45;;;30.60;55.30;;;;;;6151696;23;20048;-89
2021/07/26 10:21:10;;;;;;;2.60;2.08;;;31.70;53.20;;;;;;6152113;23;20025;-91
2021/07/26 10:24:05;;;;;;;;;;;32.10;52.60;;;;;;6155779;23;20073;-92
2021/07/26 10:26:58;;;;;;;2.17;1.92;;;31.90;50.70;;;;;;6156610;23;20512;-88
2021/07/26 10:29:55;;;;;;;3.80;1.77;;;31.80;52.90;;;;;;6153165;23;20048;-89
2021/07/26 10:32:43;;;;;;;3.35;2.00;;;32.10;51.40;;;;;;6126441;23;20389;-87
2021/07/26 10:35:40;;;;;;;4.70;1.98;;;32.70;50.50;;;;;;6125359;23;20034;-91
2021/07/26 10:38:59;;;;;;;4.50;2.10;;;32.60;49.60;;;;;;6104433;23;20326;-90
2021/07/26 10:41:49;;;;;;;5.43;2.30;;;31.80;51.10;;;;;;6127132;23;20326;-92
2021/07/26 10:44:43;;;;;;;2.03;1.52;;;31.40;51.80;;;;;;6104953;23;20093;-91
2021/07/26 10:47:44;;;;;;;4.55;1.92;;;31.50;51.70;;;;;;6103905;23;20026;-91
2021/07/26 10:50:44;;;;;;;2.10;1.83;;;31.20;51.50;;;;;;6104797;23;20088;-89
2021/07/26 10:53:34;;;;;;;2.10;1.90;;;31.80;50.60;;;;;;6104732;23;20045;-90
2021/07/26 10:56:22;;;;;;;3.38;1.70;;;33.00;49.50;;;;;;6103850;23;20045;-91
2021/07/26 10:59:11;;;;;;;2.58;2.00;;;33.60;48.60;;;;;;6125853;23;20037;-89
2021/07/26 11:05:50;;;;;;;2.53;2.03;;;33.30;47.40;;;;;;6127441;23;20681;-92
2021/07/26 11:08:40;;;;;;;3.35;2.05;;;33.20;50.70;;;;;;6106062;23;20026;-89
2021/07/26 11:11:40;;;;;;;2.80;1.90;;;33.80;45.30;;;;;;6104540;23;20030;-91
2021/07/26 11:15:49;;;;;;;2.13;1.92;;;33.70;46.60;;;;;;6128211;23;20053;-90
2021/07/26 11:18:20;;;;;;;2.17;1.83;;;33.60;49.00;;;;;;6070151;23;20035;-90
2021/07/26 11:21:09;;;;;;;3.17;2.30;;;33.80;47.30;;;;;;6094020;23;20025;-91
2021/07/26 11:23:56;;;;;;;2.60;2.22;;;32.60;46.70;;;;;;6127851;23;20238;-88
2021/07/26 11:26:49;;;;;;;2.33;2.10;;;30.70;50.00;;;;;;6130038;23;20022;-90
2021/07/26 11:29:39;;;;;;;2.75;2.40;;;30.30;51.40;;;;;;6107775;23;20030;-92
2021/07/26 11:33:15;;;;;;;2.55;2.20;;;29.90;51.50;;;;;;6159279;23;20078;-92
2021/07/26 11:37:03;;;;;;;2.55;2.35;;;29.50;54.20;;;;;;6125625;23;20041;-90
2021/07/26 11:48:34;;;;;;;2.50;2.17;;;27.50;59.30;;;;;;6158513;23;19920;-90
2021/07/26 11:51:31;;;;;;;5.28;2.45;;;26.80;60.30;;;;;;6156885;23;20076;-89
2021/07/26 11:54:27;;;;;;;5.30;2.95;;;25.60;69.80;;;;;;6158900;23;20057;-89
2021/07/26 11:57:17;;;;;;;5.85;2.92;;;24.70;84.20;;;;;;6156012;23;20124;-88
2021/07/26 12:00:06;;;;;;;16.05;4.05;;;23.80;89.10;;;;;;6136675;23;20095;-88
2021/07/26 12:02:53;;;;;;;9.07;3.63;;;23.20;97.20;;;;;;6160785;23;20026;-91
2021/07/26 12:05:41;;;;;;;6.90;3.50;;;22.80;99.90;;;;;;6157153;23;20032;-91
2021/07/26 12:08:28;;;;;;;4.53;3.67;;;22.50;99.90;;;;;;6158743;23;20030;-90
2021/07/26 12:11:23;;;;;;;10.73;3.15;;;22.30;99.90;;;;;;6158190;23;20133;-92
2021/07/26 12:14:32;;;;;;;7.85;3.58;;;22.10;99.90;;;;;;6156461;23;20425;-90
2021/07/26 12:17:25;;;;;;;4.70;3.53;;;21.90;99.90;;;;;;6157070;23;20479;-90
2021/07/26 12:20:20;;;;;;;6.35;3.58;;;21.80;99.90;;;;;;6156686;23;20029;-90
2021/07/26 12:23:16;;;;;;;7.82;3.60;;;21.80;99.90;;;;;;6158362;23;20026;-91
2021/07/26 12:26:11;;;;;;;8.20;3.53;;;21.80;99.90;;;;;;6158736;23;20022;-91
2021/07/26 12:29:12;;;;;;;5.93;3.80;;;21.80;99.90;;;;;;6158611;23;20156;-91
2021/07/26 12:32:05;;;;;;;6.78;3.67;;;21.90;99.90;;;;;;6158338;23;20029;-90
2021/07/26 12:35:29;;;;;;;9.50;4.15;;;21.80;99.90;;;;;;6156362;23;20033;-90
2021/07/26 12:38:18;;;;;;;8.27;4.05;;;21.80;99.90;;;;;;6066200;23;20034;-89
2021/07/26 12:41:10;;;;;;;5.38;3.95;;;21.60;99.90;;;;;;6154883;23;20033;-91
2021/07/26 12:44:20;;;;;;;8.63;4.20;;;21.50;99.90;;;;;;6153306;23;20030;-89
2021/07/26 12:47:24;;;;;;;5.35;4.25;;;21.50;99.90;;;;;;6152376;23;20025;-90
2021/07/26 12:50:15;;;;;;;10.80;5.10;;;21.40;99.90;;;;;;6156435;23;20126;-90
2021/07/26 12:53:11;;;;;;;10.70;5.17;;;21.40;99.90;;;;;;6153876;23;20278;-90
2021/07/26 12:56:39;;;;;;;;;;;;;;;;;;;;;
2021/07/26 13:03:40;;;;;;;7.28;5.15;;;20.80;99.90;;;;;;6125865;23;20124;-90
2021/07/26 13:06:30;;;;;;;8.43;5.40;;;20.70;99.90;;;;;;6151395;23;20033;-87
2021/07/26 13:09:47;;;;;;;6.28;5.25;;;20.80;99.90;;;;;;6153225;23;20036;-90
2021/07/26 13:12:48;;;;;;;7.63;4.88;;;21.20;99.90;;;;;;6075943;23;20026;-89
2021/07/26 13:16:24;;;;;;;9.15;4.82;;;22.30;99.90;;;;;;6094099;23;20299;-90
2021/07/26 13:19:56;;;;;;;;;;;;;;;;;;;;;
2021/07/26 13:23:13;;;;;;;;;;;;;;;;;;;;;
2021/07/26 13:27:11;;;;;;;;;;;;;;;;;;;;;
2021/07/26 13:30:18;;;;;;;8.68;4.63;;;24.10;99.90;;;;;;5929737;24;20060;-91
2021/07/26 13:34:06;;;;;;;4.85;3.90;;;25.20;99.90;;;;;;5929118;24;20657;-92
2021/07/26 13:37:07;;;;;;;6.18;3.50;;;28.00;99.90;;;;;;5880819;24;20064;-91
2021/07/26 13:40:10;;;;;;;3.88;3.38;;;28.60;99.50;;;;;;5924786;24;20039;-87
2021/07/26 13:43:00;;;;;;;5.53;3.10;;;29.30;99.10;;;;;;5950328;23;20111;-89
2021/07/26 13:45:49;;;;;;;4.10;3.20;;;30.20;95.50;;;;;;6007967;23;20039;-89
2021/07/26 13:48:37;;;;;;;5.38;3.50;;;29.70;92.00;;;;;;5986824;23;20106;-88
2021/07/26 13:51:24;;;;;;;6.82;3.70;;;29.00;93.00;;;;;;6064678;23;20141;-89
2021/07/26 13:54:23;;;;;;;6.03;3.80;;;28.10;93.80;;;;;;6138389;23;20040;-90
2021/07/26 13:57:17;;;;;;;3.92;3.47;;;27.00;97.20;;;;;;6156650;23;20033;-90
2021/07/26 14:00:06;;;;;;;6.43;3.65;;;26.20;99.90;;;;;;6154724;23;20320;-89
2021/07/26 14:02:54;;;;;;;4.03;3.38;;;25.50;99.90;;;;;;6154376;23;20035;-90
2021/07/26 14:05:41;;;;;;;5.65;3.42;;;24.80;99.90;;;;;;6156629;23;20033;-89
2021/07/26 14:08:29;;;;;;;4.70;3.40;;;24.10;99.90;;;;;;6155586;23;20085;-89
2021/07/26 14:11:16;;;;;;;7.40;3.78;;;23.50;99.90;;;;;;6152947;23;20025;-87
2021/07/26 14:14:08;;;;;;;6.57;3.20;;;23.10;99.90;;;;;;6154289;23;20490;-88
2021/07/26 14:17:04;;;;;;;4.70;2.58;;;22.60;99.90;;;;;;6154380;23;20565;-90
2021/07/26 14:19:52;;;;;;;3.97;2.40;;;22.30;99.90;;;;;;6152906;23;20040;-85
2021/07/26 14:22:40;;;;;;;5.93;2.42;;;22.00;99.90;;;;;;6153618;23;20141;-85
2021/07/26 14:25:29;;;;;;;3.67;2.17;;;21.80;99.90;;;;;;6164876;23;20080;-89
2021/07/26 14:28:42;;;;;;;5.35;2.00;;;21.50;99.90;;;;;;6150363;23;20267;-88
2021/07/26 14:31:30;;;;;;;3.03;2.50;;;21.20;99.90;;;;;;6154169;23;20021;-91
2021/07/26 14:34:32;;;;;;;10.82;2.35;;;20.80;99.90;;;;;;6152976;23;20032;-89
2021/07/26 14:37:21;;;;;;;8.18;3.03;;;20.30;99.90;;;;;;6152964;23;20303;-87
2021/07/26 14:40:09;;;;;;;4.25;3.28;;;19.70;99.90;;;;;;6154286;23;20432;-86
2021/07/26 14:42:59;;;;;;;4.25;3.05;;;19.20;99.90;;;;;;6151901;23;20195;-89
2021/07/26 14:45:48;;;;;;;6.68;3.85;;;18.80;99.90;;;;;;6152312;23;20053;-88
2021/07/26 14:48:49;;;;;;;8.70;3.38;;;18.30;99.90;;;;;;6155104;23;20413;-90
2021/07/26 14:51:47;;;;;;;4.97;2.22;;;17.70;99.90;;;;;;6151645;23;20064;-89
2021/07/26 14:54:34;;;;;;;11.38;4.47;;;17.30;99.90;;;;;;6151588;23;20029;-90
2021/07/26 14:57:23;;;;;;;10.98;4.97;;;17.00;99.90;;;;;;6156858;23;20034;-87
2021/07/26 15:00:11;;;;;;;8.98;4.55;;;16.30;99.90;;;;;;6152854;23;20048;-89
2021/07/26 15:03:14;;;;;;;6.53;4.80;;;16.00;99.90;;;;;;6154022;23;20025;-91
2021/07/26 15:06:22;;;;;;;3.97;3.58;;;16.00;99.90;;;;;;6151379;23;20033;-90
2021/07/26 15:09:09;;;;;;;6.00;4.22;;;16.10;99.90;;;;;;6152569;23;20077;-88
2021/07/26 15:11:56;;;;;;;9.27;3.85;;;16.20;99.90;;;;;;6153379;23;20061;-89
2021/07/26 15:14:46;;;;;;;7.78;4.35;;;16.20;99.90;;;;;;6150653;23;20037;-88
2021/07/26 15:17:33;;;;;;;6.85;4.40;;;16.10;99.90;;;;;;6151949;23;20033;-87
2021/07/26 15:20:21;;;;;;;5.53;3.75;;;16.30;99.90;;;;;;6154144;23;20080;-91
2021/07/26 15:23:30;;;;;;;6.68;4.10;;;16.40;99.90;;;;;;6132179;23;20443;-92
2021/07/26 15:26:27;;;;;;;8.60;4.45;;;16.70;99.90;;;;;;6137708;23;20048;-91
2021/07/26 15:29:20;;;;;;;7.70;4.55;;;16.90;99.90;;;;;;6155148;23;20021;-92
2021/07/26 15:32:27;;;;;;;7.57;4.22;;;17.00;99.90;;;;;;6155393;23;20195;-91
2021/07/26 15:35:28;;;;;;;;;;;;;;;;;;;;;
2021/07/26 15:39:02;;;;;;;;;;;;;;;;;;;;;
2021/07/26 15:55:34;;;;;;;;;;;;;;;;;;;;;
2021/07/26 15:59:08;;;;;;;;;;;;;;;;;;;;;
2021/07/26 16:10:08;;;;;;;;;;;;;;;;;;;;;
2021/07/26 18:24:53;;;;;;;20.80;8.02;;;17.60;99.90;;;;;;5984410;24;20024;-92
2021/07/26 18:28:07;;;;;;;23.58;8.18;;;17.60;99.90;;;;;;5982354;24;20131;-92
2021/07/26 18:32:25;;;;;;;;;;;;;;;;;;;;;